sensor_id;sensor_type;location;lat;lon;timestamp;temperature;humidity
54158;DHT22;40065;49.894;10.358;2022-10-24T00:02:34;15.70;99.90
54158;DHT22;40065;49.894;10.358;2022-10-24T00:07:36;15.90;99.90
54158;DHT22;40065;49.894;10.358;2022-10-24T00:12:38;16.30;99.90
54158;DHT22;40065;49.894;10.358;2022-10-24T00:17:40;16.60;99.90
54158;DHT22;40065;49.894;10.358;2022-10-24T00:22:41;16.80;99.90
54158;DHT22;40065;49.894;10.358;2022-10-24T00:27:44;17.00;99.90
54158;DHT22;40065;49.894;10.358;2022-10-24T00:32:45;16.90;99.90
54158;DHT22;40065;49.894;10.358;2022-10-24T00:37:47;16.80;99.90
54158;DHT22;40065;49.894;10.358;2022-10-24T00:42:49;16.60;99.90
54158;DHT22;40065;49.894;10.358;2022-10-24T00:47:51;16.70;99.90
54158;DHT22;40065;49.894;10.358;2022-10-24T00:52:53;16.50;99.90
54158;DHT22;40065;49.894;10.358;2022-10-24T00:57:55;16.70;99.90
54158;DHT22;40065;49.894;10.358;2022-10-24T01:03:02;17.10;99.90
54158;DHT22;40065;49.894;10.358;2022-10-24T01:08:20;17.40;99.90
54158;DHT22;40065;49.894;10.358;2022-10-24T01:13:31;17.40;99.90
54158;DHT22;40065;49.894;10.358;2022-10-24T01:29:17;17.10;99.90
54158;DHT22;40065;49.894;10.358;2022-10-24T01:34:31;16.80;99.90
54158;DHT22;40065;49.894;10.358;2022-10-24T01:39:42;16.40;99.90
54158;DHT22;40065;49.894;10.358;2022-10-24T01:44:48;16.10;99.90
54158;DHT22;40065;49.894;10.358;2022-10-24T01:49:55;15.80;99.90
54158;DHT22;40065;49.894;10.358;2022-10-24T01:54:59;15.80;99.90
54158;DHT22;40065;49.894;10.358;2022-10-24T02:00:05;16.00;99.90
54158;DHT22;40065;49.894;10.358;2022-10-24T02:10:51;16.90;99.90
54158;DHT22;40065;49.894;10.358;2022-10-24T02:15:56;17.10;99.90
54158;DHT22;40065;49.894;10.358;2022-10-24T02:26:46;16.80;99.90
54158;DHT22;40065;49.894;10.358;2022-10-24T02:31:51;16.10;99.90
54158;DHT22;40065;49.894;10.358;2022-10-24T02:36:55;16.00;99.90
54158;DHT22;40065;49.894;10.358;2022-10-24T02:41:58;16.20;99.90
54158;DHT22;40065;49.894;10.358;2022-10-24T02:47:02;16.20;99.90
54158;DHT22;40065;49.894;10.358;2022-10-24T02:52:05;16.10;99.90
54158;DHT22;40065;49.894;10.358;2022-10-24T02:57:07;16.30;99.90
54158;DHT22;40065;49.894;10.358;2022-10-24T03:02:09;16.40;99.90
54158;DHT22;40065;49.894;10.358;2022-10-24T03:07:10;16.60;99.90
54158;DHT22;40065;49.894;10.358;2022-10-24T03:12:14;16.70;99.90
54158;DHT22;40065;49.894;10.358;2022-10-24T03:17:16;16.70;99.90
54158;DHT22;40065;49.894;10.358;2022-10-24T03:22:18;16.80;99.90
54158;DHT22;40065;49.894;10.358;2022-10-24T03:27:20;16.80;99.90
54158;DHT22;40065;49.894;10.358;2022-10-24T03:32:22;16.70;99.90
54158;DHT22;40065;49.894;10.358;2022-10-24T03:37:24;16.70;99.90
54158;DHT22;40065;49.894;10.358;2022-10-24T03:42:25;16.80;99.90
54158;DHT22;40065;49.894;10.358;2022-10-24T03:47:27;16.70;99.90
54158;DHT22;40065;49.894;10.358;2022-10-24T03:52:29;16.60;99.90
54158;DHT22;40065;49.894;10.358;2022-10-24T03:57:31;16.60;99.90
54158;DHT22;40065;49.894;10.358;2022-10-24T04:02:32;16.60;99.90
54158;DHT22;40065;49.894;10.358;2022-10-24T04:07:34;16.50;99.90
54158;DHT22;40065;49.894;10.358;2022-10-24T04:12:36;16.60;99.90
54158;DHT22;40065;49.894;10.358;2022-10-24T04:17:38;16.70;99.90
54158;DHT22;40065;49.894;10.358;2022-10-24T04:22:39;16.50;99.90
54158;DHT22;40065;49.894;10.358;2022-10-24T04:27:41;16.20;99.90
54158;DHT22;40065;49.894;10.358;2022-10-24T04:32:43;16.30;99.90
54158;DHT22;40065;49.894;10.358;2022-10-24T04:37:46;16.30;99.90
54158;DHT22;40065;49.894;10.358;2022-10-24T04:42:47;16.40;99.90
54158;DHT22;40065;49.894;10.358;2022-10-24T04:47:49;16.60;99.90
54158;DHT22;40065;49.894;10.358;2022-10-24T04:52:51;16.70;99.90
54158;DHT22;40065;49.894;10.358;2022-10-24T04:57:53;16.60;99.90
54158;DHT22;40065;49.894;10.358;2022-10-24T05:02:55;16.70;99.90
54158;DHT22;40065;49.894;10.358;2022-10-24T05:07:59;17.00;99.90
54158;DHT22;40065;49.894;10.358;2022-10-24T05:13:01;17.00;99.90
54158;DHT22;40065;49.894;10.358;2022-10-24T05:18:03;16.90;99.90
54158;DHT22;40065;49.894;10.358;2022-10-24T05:23:05;17.00;99.90
54158;DHT22;40065;49.894;10.358;2022-10-24T05:28:07;17.10;99.90
54158;DHT22;40065;49.894;10.358;2022-10-24T05:33:09;17.10;99.90
54158;DHT22;40065;49.894;10.358;2022-10-24T05:38:11;17.10;99.90
54158;DHT22;40065;49.894;10.358;2022-10-24T05:43:13;17.20;99.90
54158;DHT22;40065;49.894;10.358;2022-10-24T05:48:15;17.30;99.90
54158;DHT22;40065;49.894;10.358;2022-10-24T05:53:17;17.40;99.90
54158;DHT22;40065;49.894;10.358;2022-10-24T05:58:19;17.50;99.90
54158;DHT22;40065;49.894;10.358;2022-10-24T06:03:23;17.50;99.90
54158;DHT22;40065;49.894;10.358;2022-10-24T06:08:24;17.40;99.90
54158;DHT22;40065;49.894;10.358;2022-10-24T06:13:27;17.30;99.90
54158;DHT22;40065;49.894;10.358;2022-10-24T06:18:37;17.00;99.90
54158;DHT22;40065;49.894;10.358;2022-10-24T06:23:39;16.60;99.90
54158;DHT22;40065;49.894;10.358;2022-10-24T06:28:41;16.40;99.90
54158;DHT22;40065;49.894;10.358;2022-10-24T06:33:43;16.20;99.90
54158;DHT22;40065;49.894;10.358;2022-10-24T06:38:44;16.50;99.90
54158;DHT22;40065;49.894;10.358;2022-10-24T06:43:46;16.40;99.90
54158;DHT22;40065;49.894;10.358;2022-10-24T06:48:53;16.40;99.90
54158;DHT22;40065;49.894;10.358;2022-10-24T06:53:57;16.20;99.90
54158;DHT22;40065;49.894;10.358;2022-10-24T06:58:59;16.30;99.90
54158;DHT22;40065;49.894;10.358;2022-10-24T07:04:00;16.70;99.90
54158;DHT22;40065;49.894;10.358;2022-10-24T07:09:04;16.80;99.90
54158;DHT22;40065;49.894;10.358;2022-10-24T07:14:06;16.60;99.90
54158;DHT22;40065;49.894;10.358;2022-10-24T07:19:10;16.60;99.90
54158;DHT22;40065;49.894;10.358;2022-10-24T07:24:12;16.80;99.90
54158;DHT22;40065;49.894;10.358;2022-10-24T07:29:14;16.80;99.90
54158;DHT22;40065;49.894;10.358;2022-10-24T07:34:16;16.70;99.90
54158;DHT22;40065;49.894;10.358;2022-10-24T07:39:18;16.50;99.90
54158;DHT22;40065;49.894;10.358;2022-10-24T07:44:20;16.30;99.90
54158;DHT22;40065;49.894;10.358;2022-10-24T07:49:22;16.30;99.90
54158;DHT22;40065;49.894;10.358;2022-10-24T07:54:24;16.20;99.90
54158;DHT22;40065;49.894;10.358;2022-10-24T07:59:27;16.30;99.90
54158;DHT22;40065;49.894;10.358;2022-10-24T08:04:43;16.60;99.90
54158;DHT22;40065;49.894;10.358;2022-10-24T08:09:46;17.10;99.90
54158;DHT22;40065;49.894;10.358;2022-10-24T08:14:48;17.00;99.90
54158;DHT22;40065;49.894;10.358;2022-10-24T08:19:50;16.80;99.90
54158;DHT22;40065;49.894;10.358;2022-10-24T08:24:52;16.80;99.90
54158;DHT22;40065;49.894;10.358;2022-10-24T08:29:53;16.70;99.90
54158;DHT22;40065;49.894;10.358;2022-10-24T08:34:55;16.80;99.90
54158;DHT22;40065;49.894;10.358;2022-10-24T08:39:58;16.70;99.90
54158;DHT22;40065;49.894;10.358;2022-10-24T08:45:00;16.60;99.90
54158;DHT22;40065;49.894;10.358;2022-10-24T08:55:44;16.40;99.90
54158;DHT22;40065;49.894;10.358;2022-10-24T09:00:53;16.70;99.90
54158;DHT22;40065;49.894;10.358;2022-10-24T09:05:59;16.50;99.90
54158;DHT22;40065;49.894;10.358;2022-10-24T09:11:04;16.60;99.90
54158;DHT22;40065;49.894;10.358;2022-10-24T09:16:12;16.60;99.90
54158;DHT22;40065;49.894;10.358;2022-10-24T09:21:15;16.70;99.90
54158;DHT22;40065;49.894;10.358;2022-10-24T09:26:28;17.10;99.90
54158;DHT22;40065;49.894;10.358;2022-10-24T09:31:31;17.20;99.90
54158;DHT22;40065;49.894;10.358;2022-10-24T09:36:33;16.90;99.90
54158;DHT22;40065;49.894;10.358;2022-10-24T09:41:35;17.10;99.90
54158;DHT22;40065;49.894;10.358;2022-10-24T09:46:42;17.20;99.90
54158;DHT22;40065;49.894;10.358;2022-10-24T09:51:59;17.30;99.90
54158;DHT22;40065;49.894;10.358;2022-10-24T10:02:16;17.30;99.90
54158;DHT22;40065;49.894;10.358;2022-10-24T10:07:27;17.20;99.90
54158;DHT22;40065;49.894;10.358;2022-10-24T10:12:36;17.20;99.90
54158;DHT22;40065;49.894;10.358;2022-10-24T10:17:48;17.10;99.90
54158;DHT22;40065;49.894;10.358;2022-10-24T10:22:50;17.20;99.90
54158;DHT22;40065;49.894;10.358;2022-10-24T10:27:52;17.20;99.90
54158;DHT22;40065;49.894;10.358;2022-10-24T10:33:18;17.40;99.90
54158;DHT22;40065;49.894;10.358;2022-10-24T10:38:57;17.30;99.90
54158;DHT22;40065;49.894;10.358;2022-10-24T10:49:36;17.10;99.90
54158;DHT22;40065;49.894;10.358;2022-10-24T11:00:03;17.60;99.90
54158;DHT22;40065;49.894;10.358;2022-10-24T11:10:24;17.60;99.90
54158;DHT22;40065;49.894;10.358;2022-10-24T11:15:34;17.70;99.90
54158;DHT22;40065;49.894;10.358;2022-10-24T11:20:54;17.70;99.90
54158;DHT22;40065;49.894;10.358;2022-10-24T11:31:20;17.80;99.90
54158;DHT22;40065;49.894;10.358;2022-10-24T11:41:47;17.80;99.90
54158;DHT22;40065;49.894;10.358;2022-10-24T11:52:28;17.90;99.90
54158;DHT22;40065;49.894;10.358;2022-10-24T11:57:33;18.00;99.90
54158;DHT22;40065;49.894;10.358;2022-10-24T12:18:47;17.80;99.90
54158;DHT22;40065;49.894;10.358;2022-10-24T12:23:55;17.80;99.90
54158;DHT22;40065;49.894;10.358;2022-10-24T12:29:06;17.90;99.90
54158;DHT22;40065;49.894;10.358;2022-10-24T12:39:34;17.90;99.90
54158;DHT22;40065;49.894;10.358;2022-10-24T12:44:38;18.00;99.90
54158;DHT22;40065;49.894;10.358;2022-10-24T12:49:40;18.00;99.90
54158;DHT22;40065;49.894;10.358;2022-10-24T12:54:43;18.00;99.90
54158;DHT22;40065;49.894;10.358;2022-10-24T12:59:48;18.00;99.90
54158;DHT22;40065;49.894;10.358;2022-10-24T13:20:37;18.10;99.90
54158;DHT22;40065;49.894;10.358;2022-10-24T13:25:40;18.00;99.90
54158;DHT22;40065;49.894;10.358;2022-10-24T13:30:41;18.00;99.90
54158;DHT22;40065;49.894;10.358;2022-10-24T13:35:48;17.80;99.90
54158;DHT22;40065;49.894;10.358;2022-10-24T13:40:49;17.80;99.90
54158;DHT22;40065;49.894;10.358;2022-10-24T13:51:13;17.80;99.90
54158;DHT22;40065;49.894;10.358;2022-10-24T13:56:17;18.00;99.90
54158;DHT22;40065;49.894;10.358;2022-10-24T14:01:27;18.10;99.90
54158;DHT22;40065;49.894;10.358;2022-10-24T14:06:32;18.20;99.90
54158;DHT22;40065;49.894;10.358;2022-10-24T14:11:39;18.60;99.90
54158;DHT22;40065;49.894;10.358;2022-10-24T14:16:41;18.80;99.90
54158;DHT22;40065;49.894;10.358;2022-10-24T14:21:44;19.00;99.90
54158;DHT22;40065;49.894;10.358;2022-10-24T14:26:49;19.00;99.90
54158;DHT22;40065;49.894;10.358;2022-10-24T14:32:05;18.90;99.90
54158;DHT22;40065;49.894;10.358;2022-10-24T14:37:23;18.70;99.90
54158;DHT22;40065;49.894;10.358;2022-10-24T14:42:26;18.40;99.90
54158;DHT22;40065;49.894;10.358;2022-10-24T14:47:35;18.30;99.90
54158;DHT22;40065;49.894;10.358;2022-10-24T14:52:43;18.20;99.90
54158;DHT22;40065;49.894;10.358;2022-10-24T14:57:48;18.20;99.90
54158;DHT22;40065;49.894;10.358;2022-10-24T15:02:56;17.90;99.90
54158;DHT22;40065;49.894;10.358;2022-10-24T15:08:21;18.10;99.90
54158;DHT22;40065;49.894;10.358;2022-10-24T15:13:25;18.10;99.90
54158;DHT22;40065;49.894;10.358;2022-10-24T15:18:40;18.10;99.90
54158;DHT22;40065;49.894;10.358;2022-10-24T15:23:48;18.00;99.90
54158;DHT22;40065;49.894;10.358;2022-10-24T15:34:04;17.80;99.90
54158;DHT22;40065;49.894;10.358;2022-10-24T15:39:11;17.80;99.90
54158;DHT22;40065;49.894;10.358;2022-10-24T15:44:22;17.90;99.90
54158;DHT22;40065;49.894;10.358;2022-10-24T15:49:26;17.80;99.90
54158;DHT22;40065;49.894;10.358;2022-10-24T15:54:29;17.70;99.90
54158;DHT22;40065;49.894;10.358;2022-10-24T15:59:31;17.60;99.90
54158;DHT22;40065;49.894;10.358;2022-10-24T16:04:33;17.50;99.90
54158;DHT22;40065;49.894;10.358;2022-10-24T16:09:35;17.50;99.90
54158;DHT22;40065;49.894;10.358;2022-10-24T16:14:36;17.40;99.90
54158;DHT22;40065;49.894;10.358;2022-10-24T16:19:38;17.30;99.90
54158;DHT22;40065;49.894;10.358;2022-10-24T16:24:40;17.30;99.90
54158;DHT22;40065;49.894;10.358;2022-10-24T16:29:42;17.20;99.90
54158;DHT22;40065;49.894;10.358;2022-10-24T16:34:43;17.20;99.90
54158;DHT22;40065;49.894;10.358;2022-10-24T16:39:49;17.00;99.90
54158;DHT22;40065;49.894;10.358;2022-10-24T16:44:51;16.90;99.90
54158;DHT22;40065;49.894;10.358;2022-10-24T16:49:57;16.80;99.90
54158;DHT22;40065;49.894;10.358;2022-10-24T16:54:59;16.70;99.90
54158;DHT22;40065;49.894;10.358;2022-10-24T17:00:01;16.60;99.90
54158;DHT22;40065;49.894;10.358;2022-10-24T17:05:03;16.50;99.90
54158;DHT22;40065;49.894;10.358;2022-10-24T17:10:06;16.40;99.90
54158;DHT22;40065;49.894;10.358;2022-10-24T17:15:08;16.30;99.90
54158;DHT22;40065;49.894;10.358;2022-10-24T17:20:11;16.30;99.90
54158;DHT22;40065;49.894;10.358;2022-10-24T17:25:19;16.30;99.90
54158;DHT22;40065;49.894;10.358;2022-10-24T17:30:25;16.20;99.90
54158;DHT22;40065;49.894;10.358;2022-10-24T17:35:27;16.30;99.90
54158;DHT22;40065;49.894;10.358;2022-10-24T17:40:44;16.20;99.90
54158;DHT22;40065;49.894;10.358;2022-10-24T17:45:46;16.20;99.90
54158;DHT22;40065;49.894;10.358;2022-10-24T17:50:49;16.30;99.90
54158;DHT22;40065;49.894;10.358;2022-10-24T17:55:52;16.30;99.90
54158;DHT22;40065;49.894;10.358;2022-10-24T18:00:54;16.30;99.90
54158;DHT22;40065;49.894;10.358;2022-10-24T18:06:01;16.30;99.90
54158;DHT22;40065;49.894;10.358;2022-10-24T18:11:05;16.30;99.90
54158;DHT22;40065;49.894;10.358;2022-10-24T18:16:13;16.30;99.90
54158;DHT22;40065;49.894;10.358;2022-10-24T18:21:21;16.40;99.90
54158;DHT22;40065;49.894;10.358;2022-10-24T18:26:25;16.30;99.90
54158;DHT22;40065;49.894;10.358;2022-10-24T18:31:28;16.30;99.90
54158;DHT22;40065;49.894;10.358;2022-10-24T18:36:30;16.30;99.90
54158;DHT22;40065;49.894;10.358;2022-10-24T18:46:42;16.30;99.90
54158;DHT22;40065;49.894;10.358;2022-10-24T18:52:02;16.40;99.90
54158;DHT22;40065;49.894;10.358;2022-10-24T18:57:22;16.40;99.90
54158;DHT22;40065;49.894;10.358;2022-10-24T19:02:32;16.40;99.90
54158;DHT22;40065;49.894;10.358;2022-10-24T19:07:35;16.40;99.90
54158;DHT22;40065;49.894;10.358;2022-10-24T19:12:37;16.30;99.90
54158;DHT22;40065;49.894;10.358;2022-10-24T19:17:39;16.30;99.90
54158;DHT22;40065;49.894;10.358;2022-10-24T19:22:41;16.30;99.90
54158;DHT22;40065;49.894;10.358;2022-10-24T19:27:43;16.20;99.90
54158;DHT22;40065;49.894;10.358;2022-10-24T19:32:45;16.30;99.90
54158;DHT22;40065;49.894;10.358;2022-10-24T19:37:48;16.20;99.90
54158;DHT22;40065;49.894;10.358;2022-10-24T19:42:50;16.20;99.90
54158;DHT22;40065;49.894;10.358;2022-10-24T19:47:55;16.10;99.90
54158;DHT22;40065;49.894;10.358;2022-10-24T19:52:57;16.10;99.90
54158;DHT22;40065;49.894;10.358;2022-10-24T19:57:59;16.20;99.90
54158;DHT22;40065;49.894;10.358;2022-10-24T20:03:01;16.20;99.90
54158;DHT22;40065;49.894;10.358;2022-10-24T20:08:03;16.20;99.90
54158;DHT22;40065;49.894;10.358;2022-10-24T20:13:05;16.20;99.90
54158;DHT22;40065;49.894;10.358;2022-10-24T20:18:07;16.20;99.90
54158;DHT22;40065;49.894;10.358;2022-10-24T20:23:09;16.20;99.90
54158;DHT22;40065;49.894;10.358;2022-10-24T20:28:11;16.20;99.90
54158;DHT22;40065;49.894;10.358;2022-10-24T20:33:13;16.20;99.90
54158;DHT22;40065;49.894;10.358;2022-10-24T20:38:15;16.20;99.90
54158;DHT22;40065;49.894;10.358;2022-10-24T20:43:17;16.00;99.90
54158;DHT22;40065;49.894;10.358;2022-10-24T20:48:19;15.90;99.90
54158;DHT22;40065;49.894;10.358;2022-10-24T20:53:21;15.80;99.90
54158;DHT22;40065;49.894;10.358;2022-10-24T20:58:22;15.80;99.90
54158;DHT22;40065;49.894;10.358;2022-10-24T21:03:24;15.70;99.90
54158;DHT22;40065;49.894;10.358;2022-10-24T21:08:26;15.80;99.90
54158;DHT22;40065;49.894;10.358;2022-10-24T21:13:28;15.70;99.90
54158;DHT22;40065;49.894;10.358;2022-10-24T21:18:29;15.70;99.90
54158;DHT22;40065;49.894;10.358;2022-10-24T21:23:31;15.60;99.90
54158;DHT22;40065;49.894;10.358;2022-10-24T21:28:34;15.40;99.90
54158;DHT22;40065;49.894;10.358;2022-10-24T21:33:36;15.30;99.90
54158;DHT22;40065;49.894;10.358;2022-10-24T21:38:38;15.30;99.90
54158;DHT22;40065;49.894;10.358;2022-10-24T21:43:41;15.10;99.90
54158;DHT22;40065;49.894;10.358;2022-10-24T21:48:43;15.10;99.90
54158;DHT22;40065;49.894;10.358;2022-10-24T21:53:48;15.10;99.90
54158;DHT22;40065;49.894;10.358;2022-10-24T21:58:55;15.00;99.90
54158;DHT22;40065;49.894;10.358;2022-10-24T22:04:00;15.10;99.90
54158;DHT22;40065;49.894;10.358;2022-10-24T22:09:04;15.10;99.90
54158;DHT22;40065;49.894;10.358;2022-10-24T22:14:06;15.10;99.90
54158;DHT22;40065;49.894;10.358;2022-10-24T22:19:10;15.10;99.90
54158;DHT22;40065;49.894;10.358;2022-10-24T22:24:22;15.10;99.90
54158;DHT22;40065;49.894;10.358;2022-10-24T22:29:24;15.10;99.90
54158;DHT22;40065;49.894;10.358;2022-10-24T22:34:26;15.00;99.90
54158;DHT22;40065;49.894;10.358;2022-10-24T22:39:29;14.90;99.90
54158;DHT22;40065;49.894;10.358;2022-10-24T22:44:31;14.80;99.90
54158;DHT22;40065;49.894;10.358;2022-10-24T22:55:01;14.80;99.90
54158;DHT22;40065;49.894;10.358;2022-10-24T23:00:05;14.60;99.90
54158;DHT22;40065;49.894;10.358;2022-10-24T23:05:18;14.60;99.90
54158;DHT22;40065;49.894;10.358;2022-10-24T23:10:24;14.50;99.90
54158;DHT22;40065;49.894;10.358;2022-10-24T23:15:27;14.30;99.90
54158;DHT22;40065;49.894;10.358;2022-10-24T23:20:55;14.30;99.90
54158;DHT22;40065;49.894;10.358;2022-10-24T23:26:07;14.20;99.90
54158;DHT22;40065;49.894;10.358;2022-10-24T23:31:11;14.10;99.90
54158;DHT22;40065;49.894;10.358;2022-10-24T23:36:19;14.10;99.90
54158;DHT22;40065;49.894;10.358;2022-10-24T23:41:28;14.10;99.90
54158;DHT22;40065;49.894;10.358;2022-10-24T23:46:39;14.00;99.90
54158;DHT22;40065;49.894;10.358;2022-10-24T23:52:15;14.00;99.90
54158;DHT22;40065;49.894;10.358;2022-10-24T23:57:19;13.90;99.90
